Astra, Argentina
Current Conditions -  °F | °C
As of 8:00 PM on Friday 31 Oct 2014 (Local Time) from SAVC Reporting Station
Broken Clouds Broken Clouds  
Wind Chill: 42°   Ceiling: 10000
Heat Index: 46°   Visibility: 6mi
Dew Point: 23°   Wind: 8mph
Humidity: 40%   Direction: 180°S
Pressure: 30.36"   Gusts: NA
Location:  45.83°S, 67.52°W
Report Text: SAVC 312300Z 18007KT 090V260 9999 FEW040BKN100 08/M05 Q1028
Loading
Personal Weather Stations






























Interactive Weather Map
Tropical Storm Tracking
New forecast layout! Learn more

10-Day Weather Forecast

Advertisements
Track Severe Weather on mobile